createdAt,value
2022-07-27T00:02:15.809Z,11.90
2022-07-27T00:05:18.139Z,11.90
2022-07-27T00:08:20.767Z,12.00
2022-07-27T00:11:22.976Z,12.00
2022-07-27T00:14:25.068Z,12.00
2022-07-27T00:17:27.322Z,11.90
2022-07-27T00:20:30.467Z,12.00
2022-07-27T00:23:32.651Z,12.00
2022-07-27T00:26:34.816Z,12.00
2022-07-27T00:29:36.936Z,12.10
2022-07-27T00:32:39.041Z,12.20
2022-07-27T00:35:41.157Z,12.20
2022-07-27T00:38:43.245Z,12.10
2022-07-27T00:41:46.141Z,12.10
2022-07-27T00:44:48.240Z,12.20
2022-07-27T00:47:54.797Z,12.20
2022-07-27T00:50:57.324Z,12.20
2022-07-27T00:53:59.457Z,12.00
2022-07-27T00:57:01.537Z,11.90
2022-07-27T01:00:05.404Z,11.90
2022-07-27T01:03:09.130Z,12.00
2022-07-27T01:06:12.336Z,12.20
2022-07-27T01:09:34.488Z,12.30
2022-07-27T01:12:36.609Z,12.30
2022-07-27T01:15:38.740Z,12.40
2022-07-27T01:18:40.874Z,12.40
2022-07-27T01:21:43.569Z,12.30
2022-07-27T01:24:45.697Z,12.30
2022-07-27T01:27:47.817Z,11.90
2022-07-27T01:30:49.979Z,11.60
2022-07-27T01:33:52.203Z,11.60
2022-07-27T01:36:54.356Z,11.60
2022-07-27T01:39:56.462Z,11.50
2022-07-27T01:42:58.596Z,11.40
2022-07-27T01:46:00.835Z,11.40
2022-07-27T01:49:03.293Z,11.40
2022-07-27T01:52:05.887Z,11.40
2022-07-27T01:55:10.160Z,11.30
2022-07-27T01:58:12.480Z,11.20
2022-07-27T02:01:14.702Z,11.20
2022-07-27T02:04:18.284Z,11.10
2022-07-27T02:07:20.402Z,11.00
2022-07-27T02:10:22.597Z,10.80
2022-07-27T02:13:25.442Z,10.80
2022-07-27T02:16:28.859Z,10.90
2022-07-27T02:19:31.031Z,10.80
2022-07-27T02:22:33.434Z,10.60
2022-07-27T02:25:36.226Z,10.50
2022-07-27T02:28:38.349Z,10.50
2022-07-27T02:31:40.468Z,10.50
2022-07-27T02:34:42.771Z,10.60
2022-07-27T02:37:44.910Z,10.70
2022-07-27T02:40:47.066Z,10.50
2022-07-27T02:43:49.268Z,10.40
2022-07-27T02:46:51.991Z,10.30
2022-07-27T02:49:54.182Z,10.30
2022-07-27T02:52:56.299Z,10.20
2022-07-27T02:55:58.511Z,10.30
2022-07-27T02:59:00.696Z,10.20
2022-07-27T03:02:02.889Z,10.10
2022-07-27T03:05:06.387Z,10.00
2022-07-27T03:08:08.708Z,10.00
2022-07-27T03:11:10.929Z,10.00
2022-07-27T03:14:13.120Z,9.90
2022-07-27T03:17:17.499Z,9.90
2022-07-27T03:20:19.746Z,9.90
2022-07-27T03:23:21.929Z,9.90
2022-07-27T03:26:24.187Z,9.90
2022-07-27T03:29:29.479Z,9.90
2022-07-27T03:32:31.857Z,9.80
2022-07-27T03:35:34.107Z,9.90
2022-07-27T03:38:36.248Z,9.90
2022-07-27T03:41:39.044Z,10.00
2022-07-27T03:44:41.257Z,10.00
2022-07-27T03:47:43.440Z,10.00
2022-07-27T03:50:45.576Z,10.10
2022-07-27T03:53:47.701Z,10.10
2022-07-27T03:56:49.914Z,10.10
2022-07-27T03:59:52.120Z,10.10
2022-07-27T04:02:54.514Z,9.90
2022-07-27T04:05:56.731Z,9.80
2022-07-27T04:09:13.776Z,9.80
2022-07-27T04:12:17.417Z,9.90
2022-07-27T04:15:22.461Z,10.00
2022-07-27T04:18:25.108Z,10.00
2022-07-27T04:21:28.055Z,10.10
2022-07-27T04:24:35.896Z,10.20
2022-07-27T04:27:38.297Z,10.30
2022-07-27T04:30:40.452Z,10.20
2022-07-27T04:33:42.922Z,10.30
2022-07-27T04:36:45.066Z,10.40
2022-07-27T04:39:47.217Z,10.40
2022-07-27T04:42:49.906Z,10.30
2022-07-27T04:45:52.611Z,10.30
2022-07-27T04:48:54.904Z,10.40
2022-07-27T04:51:57.100Z,10.50
2022-07-27T04:54:59.242Z,10.60
2022-07-27T04:58:01.371Z,10.60
2022-07-27T05:01:03.644Z,10.60
2022-07-27T05:04:05.977Z,10.60
2022-07-27T05:07:08.180Z,10.70
2022-07-27T05:10:13.429Z,10.80
2022-07-27T05:13:18.797Z,11.00
2022-07-27T05:16:25.162Z,11.10
2022-07-27T05:19:39.785Z,11.30
2022-07-27T05:22:43.050Z,11.60
2022-07-27T05:25:45.146Z,11.80
2022-07-27T05:28:47.250Z,11.90
2022-07-27T05:31:49.452Z,12.10
2022-07-27T05:34:51.680Z,12.30
2022-07-27T05:37:53.771Z,12.60
2022-07-27T05:40:55.872Z,12.70
2022-07-27T05:43:57.952Z,12.80
2022-07-27T05:47:00.027Z,12.90
2022-07-27T05:50:02.315Z,13.10
2022-07-27T05:53:04.419Z,13.30
2022-07-27T05:56:08.157Z,13.50
2022-07-27T05:59:11.304Z,13.70
2022-07-27T06:02:13.789Z,13.80
2022-07-27T06:05:17.692Z,13.70
2022-07-27T06:08:19.951Z,13.40
2022-07-27T06:11:22.043Z,13.40
2022-07-27T06:14:24.129Z,13.30
2022-07-27T06:17:26.212Z,13.30
2022-07-27T06:20:28.426Z,13.40
2022-07-27T06:23:30.625Z,13.40
2022-07-27T06:26:32.709Z,13.50
2022-07-27T06:29:34.992Z,13.50
2022-07-27T06:32:37.121Z,13.50
2022-07-27T06:35:40.992Z,13.30
2022-07-27T06:38:43.357Z,13.20
2022-07-27T06:41:45.453Z,13.30
2022-07-27T06:44:48.452Z,13.40
2022-07-27T06:47:51.321Z,13.40
2022-07-27T06:50:53.640Z,13.30
2022-07-27T06:53:55.820Z,13.40
2022-07-27T06:56:58.062Z,13.60
2022-07-27T07:00:00.215Z,13.50
2022-07-27T07:03:04.369Z,13.30
2022-07-27T07:06:06.499Z,13.10
2022-07-27T07:09:09.130Z,13.10
2022-07-27T07:12:11.406Z,13.00
2022-07-27T07:15:13.506Z,13.20
2022-07-27T07:18:15.724Z,13.30
2022-07-27T07:21:17.916Z,13.40
2022-07-27T07:24:20.007Z,13.60
2022-07-27T07:27:23.576Z,13.70
2022-07-27T07:30:25.887Z,14.00
2022-07-27T07:33:28.144Z,14.00
2022-07-27T07:36:30.303Z,14.10
2022-07-27T07:39:32.456Z,14.30
2022-07-27T07:42:57.279Z,14.50
2022-07-27T07:45:59.420Z,15.00
2022-07-27T07:49:01.600Z,14.70
2022-07-27T07:52:04.164Z,14.50
2022-07-27T07:55:07.057Z,14.70
2022-07-27T07:58:09.205Z,14.60
2022-07-27T08:01:12.342Z,14.40
2022-07-27T08:04:14.556Z,14.50
2022-07-27T08:07:16.780Z,14.70
2022-07-27T08:10:20.664Z,14.50
2022-07-27T08:13:22.943Z,14.80
2022-07-27T08:16:25.082Z,14.80
2022-07-27T08:19:27.296Z,15.00
2022-07-27T08:22:29.422Z,15.20
2022-07-27T08:25:32.294Z,15.40
2022-07-27T08:28:36.854Z,15.30
2022-07-27T08:31:52.449Z,15.50
2022-07-27T08:34:56.296Z,15.60
2022-07-27T08:37:58.715Z,15.70
2022-07-27T08:41:01.017Z,15.80
2022-07-27T08:44:03.105Z,15.90
2022-07-27T08:47:05.367Z,16.30
2022-07-27T08:50:24.596Z,16.10
2022-07-27T08:53:52.111Z,16.30
2022-07-27T08:56:48.902Z,16.70
2022-07-27T08:59:51.811Z,17.00
2022-07-27T09:02:55.350Z,17.00
2022-07-27T09:05:58.529Z,17.30
2022-07-27T09:09:00.829Z,17.10
2022-07-27T09:12:11.708Z,16.90
2022-07-27T09:15:14.786Z,17.00
2022-07-27T09:18:23.237Z,17.00
2022-07-27T09:21:25.874Z,17.10
2022-07-27T09:24:46.029Z,17.20
2022-07-27T09:27:54.030Z,17.10
2022-07-27T09:30:56.813Z,17.10
2022-07-27T09:34:01.014Z,17.20
2022-07-27T09:37:06.360Z,17.20
2022-07-27T09:40:25.488Z,17.30
2022-07-27T09:44:27.667Z,17.70
2022-07-27T09:46:51.034Z,18.00
2022-07-27T09:49:54.556Z,17.40
2022-07-27T09:53:41.731Z,18.00
2022-07-27T09:56:44.181Z,18.40
2022-07-27T09:59:46.684Z,18.70
2022-07-27T10:02:50.318Z,18.60
2022-07-27T10:05:52.437Z,18.30
2022-07-27T10:08:55.624Z,18.50
2022-07-27T10:11:58.429Z,18.70
2022-07-27T10:15:00.636Z,18.60
2022-07-27T10:18:16.320Z,18.70
2022-07-27T10:21:18.523Z,19.10
2022-07-27T10:24:34.769Z,19.30
2022-07-27T10:27:36.895Z,19.50
2022-07-27T10:30:39.245Z,19.40
2022-07-27T10:33:42.751Z,19.70
2022-07-27T10:36:51.506Z,19.50
2022-07-27T10:40:28.373Z,19.70
2022-07-27T10:43:32.349Z,19.40
2022-07-27T10:46:38.823Z,19.60
2022-07-27T10:49:41.471Z,19.70
2022-07-27T10:53:05.549Z,19.60
2022-07-27T10:56:08.561Z,20.10
2022-07-27T10:59:10.659Z,20.20
2022-07-27T11:02:14.654Z,20.30
2022-07-27T11:08:47.428Z,20.40
2022-07-27T11:11:50.137Z,20.70
2022-07-27T11:14:54.668Z,20.00
2022-07-27T11:18:02.200Z,19.80
2022-07-27T11:21:25.558Z,19.50
2022-07-27T11:24:28.979Z,19.40
2022-07-27T11:27:31.339Z,19.10
2022-07-27T11:30:33.560Z,19.40
2022-07-27T11:33:35.990Z,19.10
2022-07-27T11:36:43.748Z,19.20
2022-07-27T11:40:00.338Z,19.50
2022-07-27T11:43:10.180Z,19.40
2022-07-27T11:46:19.719Z,19.20
2022-07-27T11:49:30.108Z,19.40
2022-07-27T11:52:32.383Z,19.40
2022-07-27T11:55:51.621Z,19.20
2022-07-27T11:59:24.201Z,19.50
2022-07-27T12:02:27.420Z,19.40
2022-07-27T12:05:29.758Z,19.70
2022-07-27T12:08:31.943Z,20.10
2022-07-27T12:11:50.247Z,20.10
2022-07-27T12:15:43.088Z,19.80
2022-07-27T12:18:43.626Z,19.80
2022-07-27T12:21:52.639Z,20.70
2022-07-27T12:24:55.761Z,21.20
2022-07-27T12:28:09.810Z,21.50
2022-07-27T12:31:18.349Z,22.00
2022-07-27T12:34:20.568Z,22.20
2022-07-27T12:37:22.760Z,22.40
2022-07-27T12:40:25.127Z,22.40
2022-07-27T12:43:28.108Z,23.00
2022-07-27T12:46:30.442Z,22.10
2022-07-27T12:49:35.839Z,21.40
2022-07-27T12:52:44.078Z,20.80
2022-07-27T12:55:47.829Z,20.30
2022-07-27T12:59:03.813Z,20.00
2022-07-27T13:02:05.976Z,20.10
2022-07-27T13:05:09.591Z,20.20
2022-07-27T13:08:11.687Z,20.50
2022-07-27T13:11:14.001Z,20.70
2022-07-27T13:14:16.130Z,21.50
2022-07-27T13:17:18.509Z,21.20
2022-07-27T13:20:20.654Z,21.00
2022-07-27T13:23:22.794Z,20.60
2022-07-27T13:26:25.006Z,20.20
2022-07-27T13:29:30.049Z,20.10
2022-07-27T13:32:32.208Z,20.30
2022-07-27T13:35:34.620Z,20.10
2022-07-27T13:38:36.778Z,20.10
2022-07-27T13:41:40.080Z,19.90
2022-07-27T13:45:03.863Z,20.00
2022-07-27T13:48:04.459Z,19.80
2022-07-27T13:51:06.726Z,19.90
2022-07-27T13:54:08.882Z,19.90
2022-07-27T13:57:10.973Z,19.60
2022-07-27T14:00:14.044Z,19.60
2022-07-27T14:03:16.788Z,19.70
2022-07-27T14:06:21.027Z,19.90
2022-07-27T14:09:44.963Z,20.30
2022-07-27T14:12:47.136Z,20.40
2022-07-27T14:15:53.002Z,20.50
2022-07-27T14:18:57.313Z,20.80
2022-07-27T14:21:59.510Z,21.00
2022-07-27T14:25:01.651Z,21.10
2022-07-27T14:28:03.839Z,21.30
2022-07-27T14:31:09.987Z,21.00
2022-07-27T14:34:12.224Z,21.20
2022-07-27T14:37:14.333Z,21.20
2022-07-27T14:40:16.557Z,20.90
2022-07-27T14:43:19.014Z,20.90
2022-07-27T14:46:21.292Z,20.80
2022-07-27T14:49:25.533Z,20.80
2022-07-27T14:52:28.132Z,20.90
2022-07-27T14:55:30.334Z,20.80
2022-07-27T14:58:32.423Z,21.10
2022-07-27T15:01:34.601Z,21.50
2022-07-27T15:04:37.181Z,22.00
2022-07-27T15:07:39.404Z,21.80
2022-07-27T15:10:41.484Z,21.60
2022-07-27T15:13:43.571Z,21.30
2022-07-27T15:16:45.794Z,21.20
2022-07-27T15:19:47.995Z,21.40
2022-07-27T15:22:50.915Z,21.20
2022-07-27T15:25:53.865Z,21.20
2022-07-27T15:28:56.055Z,21.00
2022-07-27T15:31:58.213Z,20.80
2022-07-27T15:35:00.448Z,20.60
2022-07-27T15:38:02.584Z,20.30
2022-07-27T15:41:05.100Z,20.20
2022-07-27T15:44:07.281Z,20.30
2022-07-27T15:47:09.638Z,20.30
2022-07-27T15:50:11.887Z,20.60
2022-07-27T15:53:14.773Z,20.60
2022-07-27T15:56:17.119Z,21.10
2022-07-27T15:59:19.695Z,21.20
2022-07-27T16:02:26.457Z,21.00
2022-07-27T16:05:28.701Z,20.70
2022-07-27T16:08:31.244Z,20.80
2022-07-27T16:11:33.431Z,20.70
2022-07-27T16:14:35.532Z,20.80
2022-07-27T16:17:37.685Z,21.10
2022-07-27T16:20:39.990Z,21.10
2022-07-27T16:23:42.105Z,21.00
2022-07-27T16:26:44.198Z,21.30
2022-07-27T16:29:46.373Z,21.40
2022-07-27T16:32:48.463Z,21.60
2022-07-27T16:35:50.678Z,21.70
2022-07-27T16:38:52.864Z,21.90
2022-07-27T16:41:55.333Z,21.90
2022-07-27T16:44:57.465Z,21.80
2022-07-27T16:47:59.705Z,21.40
2022-07-27T16:51:01.939Z,21.10
2022-07-27T16:54:04.501Z,20.90
2022-07-27T16:57:08.010Z,20.70
2022-07-27T17:00:10.747Z,20.40
2022-07-27T17:03:13.060Z,20.10
2022-07-27T17:06:15.873Z,19.80
2022-07-27T17:09:18.250Z,19.60
2022-07-27T17:12:20.504Z,19.40
2022-07-27T17:15:25.839Z,19.20
2022-07-27T17:18:28.176Z,19.00
2022-07-27T17:21:30.300Z,18.80
2022-07-27T17:24:36.317Z,18.60
2022-07-27T17:27:40.440Z,18.50
2022-07-27T17:30:42.619Z,18.50
2022-07-27T17:33:44.721Z,18.40
2022-07-27T17:36:46.872Z,18.30
2022-07-27T17:39:49.184Z,18.30
2022-07-27T17:42:51.275Z,18.20
2022-07-27T17:45:53.452Z,18.10
2022-07-27T17:48:55.698Z,18.10
2022-07-27T17:51:58.227Z,18.00
2022-07-27T17:55:01.181Z,18.00
2022-07-27T17:58:03.333Z,17.60
2022-07-27T18:01:06.469Z,17.20
2022-07-27T18:04:08.819Z,17.00
2022-07-27T18:07:11.145Z,17.00
2022-07-27T18:10:13.271Z,17.10
2022-07-27T18:13:15.454Z,17.10
2022-07-27T18:16:17.996Z,17.10
2022-07-27T18:19:20.212Z,17.10
2022-07-27T18:22:22.472Z,17.10
2022-07-27T18:25:24.685Z,17.20
2022-07-27T18:28:26.788Z,17.10
2022-07-27T18:31:28.900Z,17.20
2022-07-27T18:34:31.044Z,17.20
2022-07-27T18:37:33.208Z,17.10
2022-07-27T18:40:36.512Z,17.00
2022-07-27T18:43:38.632Z,17.00
2022-07-27T18:46:40.764Z,16.90
2022-07-27T18:49:42.899Z,16.80
2022-07-27T18:52:45.066Z,16.80
2022-07-27T18:55:47.316Z,16.70
2022-07-27T18:58:49.472Z,16.70
2022-07-27T19:01:51.747Z,16.60
2022-07-27T19:04:54.076Z,16.50
2022-07-27T19:07:57.584Z,16.50
2022-07-27T19:10:59.720Z,16.50
2022-07-27T19:14:01.878Z,16.40
2022-07-27T19:17:04.130Z,16.40
2022-07-27T19:20:06.950Z,16.30
2022-07-27T19:23:09.075Z,16.30
2022-07-27T19:26:11.260Z,16.20
2022-07-27T19:29:13.834Z,16.10
2022-07-27T19:32:16.847Z,16.00
2022-07-27T19:35:18.984Z,16.00
2022-07-27T19:38:21.380Z,15.90
2022-07-27T19:41:23.529Z,15.80
2022-07-27T19:44:26.719Z,15.80
2022-07-27T19:47:28.962Z,15.80
2022-07-27T19:50:31.060Z,15.80
2022-07-27T19:53:35.083Z,15.70
2022-07-27T19:56:37.940Z,15.70
2022-07-27T19:59:55.437Z,15.50
2022-07-27T20:02:58.817Z,15.40
2022-07-27T20:06:02.400Z,15.30
2022-07-27T20:09:05.123Z,15.20
2022-07-27T20:12:08.355Z,15.20
2022-07-27T20:15:10.892Z,15.20
2022-07-27T20:18:12.973Z,15.20
2022-07-27T20:21:22.524Z,15.20
2022-07-27T20:24:27.605Z,15.20
2022-07-27T20:27:29.756Z,15.20
2022-07-27T20:30:32.118Z,15.10
2022-07-27T20:33:34.250Z,15.10
2022-07-27T20:36:36.423Z,15.10
2022-07-27T20:39:38.492Z,15.10
2022-07-27T20:42:41.522Z,15.00
2022-07-27T20:45:43.679Z,14.90
2022-07-27T20:48:45.889Z,14.70
2022-07-27T20:51:47.993Z,14.60
2022-07-27T20:54:50.538Z,14.60
2022-07-27T20:57:52.640Z,14.50
2022-07-27T21:00:56.683Z,14.50
2022-07-27T21:03:59.019Z,14.60
2022-07-27T21:07:01.588Z,14.70
2022-07-27T21:10:04.705Z,14.70
2022-07-27T21:13:06.982Z,14.80
2022-07-27T21:16:09.156Z,14.80
2022-07-27T21:19:12.179Z,14.80
2022-07-27T21:22:14.493Z,14.90
2022-07-27T21:25:17.343Z,15.00
2022-07-27T21:28:24.171Z,14.80
2022-07-27T21:31:27.101Z,14.80
2022-07-27T21:34:29.231Z,14.90
2022-07-27T21:37:31.291Z,15.00
2022-07-27T21:40:33.442Z,15.10
2022-07-27T21:43:35.516Z,15.20
2022-07-27T21:46:37.605Z,15.20
2022-07-27T21:49:39.942Z,15.30
2022-07-27T21:52:42.015Z,15.30
2022-07-27T21:55:44.115Z,15.10
2022-07-27T21:58:46.245Z,15.00
2022-07-27T22:01:48.364Z,15.10
2022-07-27T22:04:50.472Z,15.10
2022-07-27T22:07:52.751Z,14.90
2022-07-27T22:10:54.852Z,14.80
2022-07-27T22:13:56.937Z,14.50
2022-07-27T22:17:00.110Z,14.50
2022-07-27T22:20:02.460Z,14.60
2022-07-27T22:23:05.556Z,14.80
2022-07-27T22:26:07.670Z,14.80
2022-07-27T22:29:09.765Z,14.80
2022-07-27T22:32:11.953Z,14.80
2022-07-27T22:35:14.069Z,14.90
2022-07-27T22:38:16.139Z,14.90
2022-07-27T22:41:18.262Z,14.80
2022-07-27T22:44:20.632Z,14.50
2022-07-27T22:47:22.862Z,14.20
2022-07-27T22:50:25.327Z,14.20
2022-07-27T22:53:27.407Z,14.20
2022-07-27T22:56:29.508Z,14.30
2022-07-27T22:59:33.054Z,14.40
2022-07-27T23:02:35.153Z,14.40
2022-07-27T23:05:37.265Z,14.50
2022-07-27T23:08:39.379Z,14.50
2022-07-27T23:11:42.966Z,14.60
2022-07-27T23:14:49.029Z,14.60
2022-07-27T23:17:51.562Z,14.50
2022-07-27T23:20:53.770Z,14.40
2022-07-27T23:23:55.871Z,14.30
2022-07-27T23:26:57.995Z,14.40
2022-07-27T23:30:00.097Z,14.40
2022-07-27T23:33:02.227Z,14.40
2022-07-27T23:36:08.319Z,14.40
2022-07-27T23:39:10.403Z,14.50
2022-07-27T23:42:12.504Z,14.50
2022-07-27T23:45:14.622Z,14.70
2022-07-27T23:48:16.816Z,14.70
2022-07-27T23:51:19.418Z,14.80
2022-07-27T23:54:22.218Z,14.90
2022-07-27T23:57:24.299Z,14.90
